Legend :    VFR   Marginal VFR   IFR   Intensive IFR   Very Intensive IFR
Visi :
Ceiling :
>= 8 km
>= 3000ft
5 to 8 km
1000 to 3000 ft
1500m to 5 km
500 to 1000 ft
800 to 1500m
200 to 500 ft
< 800m
< 200 ft
Symbols :   Thunderstorms  Fog  Heavy snow  Heavy precipitations  Wind > 20 kt
SIGMETs :     Misc.  Thunderstorms  Icing  Turbulence  Mountain Waves  Volcanic Ashes







- Airport Elevation : 876 ft
- IATA code : MBX


LJMB - Maribor

CURRENT METAR :
  • 220000Z AUTO 00000KT 9999 NCD M03/M05 Q1017

EXPIRED METARs :
  • 212330Z AUTO 05002KT 9999 NCD M02/M04 Q1017
  • 212300Z AUTO 23002KT 9999 NCD M01/M04 Q1017
  • 212230Z AUTO VRB02KT 9999 NCD M01/M03 Q1017
  • 212200Z AUTO VRB02KT 9999 NCD M01/M03 Q1017
  • 212130Z AUTO VRB01KT 9999 NCD M01/M03 Q1016
  • 212100Z VRB02KT CAVOK M01/M03 Q1016

TAF TAF LJMB
Valid from the 22 at 00:00 until the 23 at 00:00 UTC


212300Z 2200/2224 VRB03KT CAVOK
TEMPO 2201/2209 12004KT
BECMG 2209/2212 18007KT
TEMPO 2212/2217 19015KT
BECMG 2220/2222 36003KT
No reported NOTAMs for that airfield.


LOGIN :  

Disclaimer |     EN      FR      IT 



MET'MAP, your aeronautical weather chart ! - Copyright ORBIFLY December 2007 - Disclaimer


ORBIFLY MET'MAP TEAM :

Programming & Development : Alexandra Zaïnal
Concept & Development : Baudouin d'Aumeries
Co-Development & Prog : Marc-Olivier Méhu
Technical & hardware support : Manuel Goepfert

Contact : metmap@orbifly.com




SOURCES & CREDITS :

   NOAA